Time;durP1;ratioP1;P1;durP2;ratioP2;P2;SDS_P1;SDS_P2;PMS_P1;PMS_P2;Temp;Humidity;BMP_temperature;BMP_pressure;BME280_temperature;BME280_humidity;BME280_pressure;Samples;Min_cycle;Max_cycle;Signal;HPM_P1;HPM_P2
2022/04/16 00:01:42;;;;;;;3.35;3.15;;;7.40;99.90;;;;;;5010017;28;20152;-71
2022/04/16 00:04:09;;;;;;;8.30;5.97;;;7.40;99.90;;;;;;5010192;28;20124;-71
2022/04/16 00:06:35;;;;;;;3.20;3.00;;;7.40;99.90;;;;;;5019122;28;20046;-71
2022/04/16 00:09:01;;;;;;;3.70;3.50;;;7.40;99.90;;;;;;5001023;28;20045;-71
2022/04/16 00:11:26;;;;;;;2.70;2.60;;;7.50;99.90;;;;;;5011312;28;20037;-71
2022/04/16 00:13:52;;;;;;;10.50;4.43;;;7.50;99.90;;;;;;4992405;28;20045;-72
2022/04/16 00:16:18;;;;;;;5.53;5.03;;;7.50;99.90;;;;;;5010210;28;20037;-71
2022/04/16 00:18:47;;;;;;;5.30;4.93;;;7.50;99.90;;;;;;5007740;28;20080;-72
2022/04/16 00:21:13;;;;;;;6.75;5.38;;;7.50;99.90;;;;;;5026950;28;20445;-71
2022/04/16 00:23:43;;;;;;;5.75;5.38;;;7.60;99.90;;;;;;5009552;28;20042;-72
2022/04/16 00:26:12;;;;;;;7.30;6.68;;;7.60;99.90;;;;;;5000214;28;20068;-72
2022/04/16 00:28:38;;;;;;;9.55;6.90;;;7.60;99.90;;;;;;4992371;28;20045;-71
2022/04/16 00:31:04;;;;;;;25.55;7.28;;;7.60;99.90;;;;;;5010642;28;20076;-71
2022/04/16 00:33:32;;;;;;;7.72;7.07;;;7.60;99.90;;;;;;5010005;28;20069;-71
2022/04/16 00:35:57;;;;;;;8.73;7.97;;;7.60;99.90;;;;;;4993596;28;20037;-71
2022/04/16 00:38:23;;;;;;;7.80;7.10;;;7.60;99.90;;;;;;5010919;28;20547;-71
2022/04/16 00:40:48;;;;;;;4.90;4.60;;;7.50;99.90;;;;;;5008647;28;20096;-71
2022/04/16 00:43:28;;;;;;;6.82;6.22;;;7.40;99.90;;;;;;5003466;28;20064;-72
2022/04/16 00:45:54;;;;;;;6.60;6.13;;;7.30;99.90;;;;;;4990622;28;20046;-72
2022/04/16 00:48:21;;;;;;;7.70;7.13;;;7.30;99.90;;;;;;5006760;28;20433;-72
2022/04/16 00:50:51;;;;;;;8.13;6.63;;;7.20;99.90;;;;;;5000999;28;20037;-72
2022/04/16 00:53:17;;;;;;;7.30;6.80;;;7.10;99.90;;;;;;5016677;28;20104;-72
2022/04/16 00:55:43;;;;;;;5.63;5.32;;;7.00;99.90;;;;;;5015537;28;20064;-71
2022/04/16 00:58:09;;;;;;;7.65;5.95;;;7.00;99.90;;;;;;4999214;28;20135;-71
2022/04/16 01:00:35;;;;;;;6.65;6.25;;;6.90;99.90;;;;;;5013273;28;20471;-72
2022/04/16 01:03:00;;;;;;;8.95;8.13;;;6.80;99.90;;;;;;5013509;28;20559;-72
2022/04/16 01:05:26;;;;;;;6.15;5.85;;;6.80;99.90;;;;;;4999046;28;20517;-72
2022/04/16 01:07:58;;;;;;;6.38;5.80;;;6.70;99.90;;;;;;4992233;28;20464;-72
2022/04/16 01:10:27;;;;;;;7.63;7.13;;;6.70;99.90;;;;;;4994087;28;20033;-71
2022/04/16 01:13:02;;;;;;;6.28;5.88;;;6.60;99.90;;;;;;5002268;28;20411;-72
2022/04/16 01:15:31;;;;;;;7.15;6.65;;;6.60;99.90;;;;;;5015996;28;20045;-72
2022/04/16 01:17:59;;;;;;;5.50;5.20;;;6.60;99.90;;;;;;5016658;28;20413;-72
2022/04/16 01:20:25;;;;;;;5.63;5.32;;;6.50;99.90;;;;;;4993937;28;20045;-71
2022/04/16 01:22:52;;;;;;;4.00;3.80;;;6.50;99.90;;;;;;4999642;28;20076;-71
2022/04/16 01:25:18;;;;;;;5.90;5.50;;;6.40;99.90;;;;;;4997426;28;20561;-72
2022/04/16 01:27:45;;;;;;;5.05;4.75;;;6.30;99.90;;;;;;4995000;28;20136;-71
2022/04/16 01:30:21;;;;;;;9.45;7.25;;;6.30;99.90;;;;;;4993984;28;20494;-72
2022/04/16 01:32:48;;;;;;;6.10;5.80;;;6.30;99.90;;;;;;5026485;28;20117;-72
2022/04/16 01:35:16;;;;;;;6.38;6.07;;;6.30;99.90;;;;;;4988934;28;20133;-72
2022/04/16 01:37:41;;;;;;;5.80;5.50;;;6.20;99.90;;;;;;5030165;28;20528;-71
2022/04/16 01:40:10;;;;;;;4.82;4.53;;;6.20;99.90;;;;;;5012671;28;20038;-72
2022/04/16 01:42:37;;;;;;;5.25;4.95;;;6.10;99.90;;;;;;5012110;28;20042;-72
2022/04/16 01:45:05;;;;;;;7.00;6.60;;;6.00;99.90;;;;;;4994801;28;20042;-72
2022/04/16 01:47:31;;;;;;;7.80;7.30;;;6.00;99.90;;;;;;5013636;28;20077;-71
2022/04/16 01:49:57;;;;;;;7.95;7.43;;;6.00;99.90;;;;;;5028881;28;20433;-71
2022/04/16 01:52:23;;;;;;;7.50;7.10;;;6.00;99.90;;;;;;5005997;28;20043;-72
2022/04/16 01:54:50;;;;;;;6.55;6.20;;;6.00;99.90;;;;;;5009565;28;20441;-72
2022/04/16 01:57:19;;;;;;;5.85;5.55;;;6.00;99.90;;;;;;5028347;28;20509;-71
2022/04/16 01:59:46;;;;;;;7.55;7.05;;;6.00;99.90;;;;;;5010558;28;20038;-72
2022/04/16 02:02:12;;;;;;;7.95;7.45;;;6.00;99.90;;;;;;5011779;28;20085;-71
2022/04/16 02:04:38;;;;;;;7.70;7.28;;;6.00;99.90;;;;;;5009258;28;20072;-72
2022/04/16 02:07:04;;;;;;;7.70;7.30;;;5.90;99.90;;;;;;5010649;28;20045;-72
2022/04/16 02:09:30;;;;;;;9.70;9.00;;;5.90;99.90;;;;;;5006409;28;20044;-72
2022/04/16 02:11:55;;;;;;;8.23;7.82;;;5.90;99.90;;;;;;4999351;28;20501;-72
2022/04/16 02:14:21;;;;;;;9.05;8.45;;;5.80;99.90;;;;;;5009212;28;20129;-72
2022/04/16 02:16:48;;;;;;;9.27;8.68;;;5.80;99.90;;;;;;5007830;28;20474;-72
2022/04/16 02:19:14;;;;;;;9.45;8.65;;;5.80;99.90;;;;;;5003733;28;20054;-72
2022/04/16 02:21:43;;;;;;;10.50;9.90;;;5.70;99.90;;;;;;5009982;28;20038;-72
2022/04/16 02:24:10;;;;;;;8.88;8.13;;;5.80;99.90;;;;;;5009632;28;20417;-72
2022/04/16 02:26:36;;;;;;;8.93;8.43;;;5.70;99.90;;;;;;5009130;28;20092;-71
2022/04/16 02:29:02;;;;;;;9.70;9.18;;;5.70;99.90;;;;;;4993091;28;20478;-71
2022/04/16 02:31:27;;;;;;;11.40;10.60;;;5.70;99.90;;;;;;4980950;28;20030;-71
2022/04/16 02:33:55;;;;;;;10.73;9.90;;;5.80;99.90;;;;;;4998302;28;20592;-72
2022/04/16 02:36:27;;;;;;;12.32;11.25;;;5.80;99.90;;;;;;4993590;28;20049;-71
2022/04/16 02:38:54;;;;;;;10.27;9.70;;;5.80;99.90;;;;;;4993632;28;20137;-72
2022/04/16 02:41:21;;;;;;;8.18;7.78;;;5.80;99.90;;;;;;5005165;28;20046;-71
2022/04/16 02:43:47;;;;;;;8.07;7.40;;;5.80;99.90;;;;;;4994255;28;20045;-72
2022/04/16 02:48:56;;;;;;;7.95;7.55;;;5.70;99.90;;;;;;5008732;28;20046;-72
2022/04/16 02:51:22;;;;;;;9.27;8.52;;;5.60;99.90;;;;;;5008332;28;20544;-72
2022/04/16 02:53:49;;;;;;;12.43;11.05;;;5.50;99.90;;;;;;4996760;28;20482;-72
2022/04/16 02:56:15;;;;;;;9.05;8.52;;;5.50;99.90;;;;;;5000401;28;20494;-72
2022/04/16 02:58:40;;;;;;;10.30;9.70;;;5.60;99.90;;;;;;5004022;28;20056;-72
2022/04/16 03:01:06;;;;;;;10.63;10.02;;;5.60;99.90;;;;;;4991887;28;20038;-72
2022/04/16 03:03:32;;;;;;;10.63;9.52;;;5.60;99.90;;;;;;5006166;28;20053;-71
2022/04/16 03:05:57;;;;;;;9.07;8.57;;;5.60;99.90;;;;;;5003460;28;20038;-71
2022/04/16 03:08:24;;;;;;;11.98;11.07;;;5.60;99.90;;;;;;4978562;28;20038;-72
2022/04/16 03:10:51;;;;;;;12.30;11.05;;;5.70;99.90;;;;;;4990085;28;20046;-72
2022/04/16 03:13:17;;;;;;;12.90;11.88;;;5.70;99.90;;;;;;4986952;28;20041;-72
2022/04/16 03:18:27;;;;;;;7.97;7.57;;;5.90;99.90;;;;;;5007332;28;20490;-72
2022/04/16 03:20:54;;;;;;;13.48;12.18;;;6.00;99.90;;;;;;4991562;28;20064;-72
2022/04/16 03:23:19;;;;;;;9.43;8.50;;;6.10;99.90;;;;;;4991459;28;20033;-72
2022/04/16 03:25:45;;;;;;;8.65;8.10;;;6.20;99.90;;;;;;5008801;28;20864;-72
2022/04/16 03:28:11;;;;;;;8.43;7.85;;;6.20;99.90;;;;;;5007787;28;20057;-72
2022/04/16 03:30:38;;;;;;;9.00;8.30;;;6.30;99.90;;;;;;5007044;28;20049;-72
2022/04/16 03:33:04;;;;;;;11.90;8.52;;;6.40;99.90;;;;;;5008483;28;20073;-72
2022/04/16 03:35:29;;;;;;;8.98;8.18;;;6.50;99.90;;;;;;4989285;28;20038;-72
2022/04/16 03:37:55;;;;;;;9.18;8.48;;;6.50;99.90;;;;;;4988961;28;20097;-72
2022/04/16 03:40:24;;;;;;;9.85;8.85;;;6.60;99.90;;;;;;5005929;28;20042;-72
2022/04/16 03:43:00;;;;;;;7.22;6.78;;;6.60;99.90;;;;;;5020018;28;20050;-72
2022/04/16 03:45:28;;;;;;;7.90;7.35;;;6.70;99.90;;;;;;5012271;28;20033;-72
2022/04/16 03:47:56;;;;;;;8.27;7.43;;;6.80;99.90;;;;;;4992302;28;20041;-72
2022/04/16 03:50:24;;;;;;;7.90;7.22;;;6.80;99.90;;;;;;5007494;28;20045;-72
2022/04/16 03:52:51;;;;;;;7.15;6.68;;;6.90;99.90;;;;;;4991666;28;20069;-72
2022/04/16 04:00:47;;;;;;;6.20;5.85;;;7.00;99.90;;;;;;5000510;28;20050;-72
2022/04/16 04:03:13;;;;;;;8.27;7.35;;;7.10;99.90;;;;;;5006690;28;20072;-73
2022/04/16 04:05:39;;;;;;;9.68;8.63;;;7.10;99.90;;;;;;5024012;28;20129;-72
2022/04/16 04:08:06;;;;;;;7.93;7.32;;;7.10;99.90;;;;;;4991312;28;20767;-73
2022/04/16 04:10:32;;;;;;;9.02;8.02;;;7.20;99.90;;;;;;4991168;28;20406;-72
2022/04/16 04:12:57;;;;;;;7.30;6.70;;;7.20;99.90;;;;;;5004849;28;20042;-73
2022/04/16 04:15:27;;;;;;;9.43;8.52;;;7.30;99.90;;;;;;5008268;28;20056;-72
2022/04/16 04:17:53;;;;;;;7.65;6.93;;;7.40;99.90;;;;;;5006790;28;20042;-72
2022/04/16 04:20:19;;;;;;;8.52;7.57;;;7.40;99.90;;;;;;5007093;28;20037;-72
2022/04/16 04:22:44;;;;;;;6.53;6.13;;;7.50;99.90;;;;;;4991472;28;20095;-72
2022/04/16 04:25:10;;;;;;;8.00;7.38;;;7.50;99.90;;;;;;5004308;28;20422;-71
2022/04/16 04:27:36;;;;;;;14.73;11.70;;;7.50;99.90;;;;;;4989893;28;20045;-71
2022/04/16 04:30:02;;;;;;;18.83;12.40;;;7.60;99.90;;;;;;5024407;28;20041;-71
2022/04/16 04:32:28;;;;;;;11.73;9.18;;;7.60;99.90;;;;;;5007018;28;20056;-71
2022/04/16 04:34:54;;;;;;;14.13;11.30;;;7.60;99.90;;;;;;5004701;28;20052;-71
2022/04/16 04:37:20;;;;;;;21.17;14.18;;;7.70;99.90;;;;;;5007129;28;20312;-71
2022/04/16 04:39:46;;;;;;;15.20;11.13;;;7.70;99.90;;;;;;5003656;28;20161;-71
2022/04/16 04:42:11;;;;;;;8.13;7.43;;;7.70;99.90;;;;;;4975376;28;20486;-71
2022/04/16 04:44:37;;;;;;;18.30;12.63;;;7.70;99.90;;;;;;5009336;28;20161;-71
2022/04/16 04:47:03;;;;;;;14.48;10.10;;;7.70;99.90;;;;;;4991087;28;20141;-71
2022/04/16 04:49:29;;;;;;;10.93;8.70;;;7.70;99.90;;;;;;5007132;28;20042;-71
2022/04/16 04:51:55;;;;;;;16.60;10.73;;;7.70;99.90;;;;;;5004262;28;20423;-71
2022/04/16 04:54:21;;;;;;;10.02;9.13;;;7.70;99.90;;;;;;5001297;28;20057;-71
2022/04/16 04:56:47;;;;;;;16.20;12.05;;;7.70;99.90;;;;;;4990937;28;20045;-72
2022/04/16 04:59:13;;;;;;;10.48;8.82;;;7.70;99.90;;;;;;5007577;28;20056;-71
2022/04/16 05:01:39;;;;;;;5.28;4.95;;;7.70;99.90;;;;;;5006843;28;20416;-71
2022/04/16 05:04:04;;;;;;;6.32;5.82;;;7.70;99.90;;;;;;5006774;28;20033;-72
2022/04/16 05:06:30;;;;;;;5.70;5.22;;;7.70;99.90;;;;;;4990653;28;20101;-71
2022/04/16 05:08:56;;;;;;;8.15;7.55;;;7.80;99.90;;;;;;5000533;28;20469;-71
2022/04/16 05:11:21;;;;;;;13.25;9.93;;;7.70;99.90;;;;;;5005687;28;20068;-72
2022/04/16 05:13:47;;;;;;;26.25;11.35;;;7.80;99.90;;;;;;5006500;28;20046;-71
2022/04/16 05:16:13;;;;;;;8.40;7.43;;;7.80;99.90;;;;;;4990518;28;20478;-71
2022/04/16 05:18:40;;;;;;;10.95;9.73;;;7.80;99.90;;;;;;4989964;28;20107;-72
2022/04/16 05:21:06;;;;;;;13.32;10.48;;;7.80;99.90;;;;;;5007291;28;20176;-71
2022/04/16 05:23:31;;;;;;;5.28;4.97;;;7.80;99.90;;;;;;4990456;28;20129;-72
2022/04/16 05:25:57;;;;;;;6.10;5.70;;;7.80;99.90;;;;;;5005834;28;20050;-72
2022/04/16 05:28:22;;;;;;;4.80;4.45;;;7.80;99.90;;;;;;5006859;28;20046;-71
2022/04/16 05:30:48;;;;;;;8.80;7.82;;;7.90;99.90;;;;;;5004601;28;20069;-71
2022/04/16 05:35:59;;;;;;;15.85;10.93;;;7.90;99.90;;;;;;5007009;28;20050;-71
2022/04/16 05:38:25;;;;;;;21.15;10.50;;;7.90;99.90;;;;;;5009405;28;20116;-71
2022/04/16 05:40:51;;;;;;;14.13;10.30;;;7.90;99.90;;;;;;4993873;28;20045;-72
2022/04/16 05:43:17;;;;;;;15.75;11.80;;;7.90;99.90;;;;;;5009491;28;20053;-72
2022/04/16 05:45:43;;;;;;;9.93;7.72;;;7.90;99.90;;;;;;5007708;28;20042;-71
2022/04/16 05:48:09;;;;;;;10.15;7.47;;;8.00;99.90;;;;;;5003303;28;20049;-71
2022/04/16 05:50:35;;;;;;;16.17;11.95;;;8.00;99.90;;;;;;4992415;28;20038;-71
2022/04/16 05:53:00;;;;;;;5.70;4.97;;;8.00;99.90;;;;;;4994306;28;20045;-72
2022/04/16 05:55:26;;;;;;;13.38;10.93;;;8.00;99.90;;;;;;4982616;28;20050;-71
2022/04/16 05:57:51;;;;;;;11.80;9.10;;;8.00;99.90;;;;;;4996824;28;20529;-71
2022/04/16 06:00:17;;;;;;;9.30;8.02;;;8.00;99.90;;;;;;5002966;28;20482;-71
2022/04/16 06:02:43;;;;;;;3.75;3.50;;;8.10;99.90;;;;;;4992024;28;20050;-71
2022/04/16 06:05:09;;;;;;;9.23;5.32;;;8.10;99.90;;;;;;5008079;28;20048;-71
2022/04/16 06:07:35;;;;;;;12.48;10.45;;;8.10;99.90;;;;;;4990474;28;20601;-72
2022/04/16 06:10:00;;;;;;;6.95;6.22;;;8.10;99.90;;;;;;4989310;28;20046;-71
2022/04/16 06:12:27;;;;;;;15.65;10.10;;;8.10;99.90;;;;;;5010039;28;20512;-71
2022/04/16 06:14:53;;;;;;;10.30;7.68;;;8.10;99.90;;;;;;4998968;28;20046;-71
2022/04/16 06:17:19;;;;;;;9.82;6.40;;;8.20;99.90;;;;;;5009026;28;20041;-73
2022/04/16 06:19:44;;;;;;;12.32;8.02;;;8.20;99.90;;;;;;4986379;28;20084;-71
2022/04/16 06:22:13;;;;;;;8.25;5.82;;;8.30;99.90;;;;;;4982642;28;20495;-71
2022/04/16 06:24:42;;;;;;;7.10;5.97;;;8.30;99.90;;;;;;4986970;28;20052;-71
2022/04/16 06:27:08;;;;;;;6.60;3.72;;;8.30;99.90;;;;;;5007311;28;20063;-71
2022/04/16 06:29:34;;;;;;;4.55;4.15;;;8.30;99.90;;;;;;4995560;28;20044;-71
2022/04/16 06:32:00;;;;;;;9.02;5.97;;;8.40;99.90;;;;;;4996765;28;20474;-72
2022/04/16 06:34:27;;;;;;;5.40;4.65;;;8.40;99.90;;;;;;5012263;28;20072;-71
2022/04/16 06:36:52;;;;;;;6.45;4.95;;;8.40;99.90;;;;;;5025463;28;20406;-71
2022/04/16 06:39:18;;;;;;;6.90;3.17;;;8.40;99.90;;;;;;4993793;28;20038;-72
2022/04/16 06:41:44;;;;;;;5.45;4.32;;;8.50;99.90;;;;;;5008729;28;20452;-71
2022/04/16 06:44:10;;;;;;;6.05;4.88;;;8.50;99.90;;;;;;5023687;28;20294;-71
2022/04/16 06:46:35;;;;;;;7.35;5.85;;;8.60;99.90;;;;;;4994944;28;20091;-71
2022/04/16 06:49:01;;;;;;;8.20;4.75;;;8.70;99.90;;;;;;5011178;28;20049;-71
2022/04/16 06:51:27;;;;;;;4.70;4.25;;;8.80;99.90;;;;;;5011474;28;20033;-72
2022/04/16 06:53:52;;;;;;;9.07;4.50;;;9.00;99.90;;;;;;5009683;28;20463;-71
2022/04/16 06:56:18;;;;;;;7.75;4.88;;;9.20;99.90;;;;;;5004272;28;20071;-70
2022/04/16 06:58:44;;;;;;;5.55;4.47;;;9.30;99.90;;;;;;4992343;28;20060;-71
2022/04/16 07:01:09;;;;;;;7.13;4.93;;;9.50;99.90;;;;;;5011330;28;20406;-71
2022/04/16 07:03:35;;;;;;;6.10;3.60;;;9.90;99.90;;;;;;5012493;28;20050;-72
2022/04/16 07:06:01;;;;;;;11.70;3.20;;;9.90;99.90;;;;;;5009225;28;20038;-72
2022/04/16 07:08:26;;;;;;;8.02;4.75;;;9.80;99.90;;;;;;4993843;28;20077;-71
2022/04/16 07:10:53;;;;;;;4.25;2.95;;;9.80;99.90;;;;;;5008842;28;20113;-71
2022/04/16 07:13:18;;;;;;;6.43;4.00;;;9.80;99.90;;;;;;5003767;28;20042;-71
2022/04/16 07:15:44;;;;;;;6.40;4.38;;;9.80;99.90;;;;;;5009421;28;20049;-72
2022/04/16 07:18:10;;;;;;;13.05;6.15;;;9.80;99.90;;;;;;4983436;28;20429;-71
2022/04/16 07:20:36;;;;;;;1.13;1.13;;;9.80;99.90;;;;;;5009343;28;20042;-71
2022/04/16 07:23:02;;;;;;;8.23;4.97;;;9.80;99.90;;;;;;4992562;28;20042;-71
2022/04/16 07:25:27;;;;;;;5.50;2.65;;;9.80;99.90;;;;;;4993648;28;20124;-71
2022/04/16 07:27:53;;;;;;;2.97;2.58;;;9.80;99.90;;;;;;5012476;28;20048;-72
2022/04/16 07:30:19;;;;;;;6.70;4.30;;;9.80;99.90;;;;;;5012176;28;20045;-72
2022/04/16 07:32:44;;;;;;;4.43;3.58;;;9.80;99.90;;;;;;5012007;28;20114;-71
2022/04/16 07:35:10;;;;;;;11.43;3.83;;;9.80;99.90;;;;;;5008679;28;20046;-71
2022/04/16 07:37:36;;;;;;;6.65;4.28;;;9.80;99.90;;;;;;4992412;28;20139;-71
2022/04/16 07:40:02;;;;;;;7.85;3.35;;;9.90;99.90;;;;;;4993185;28;20494;-71
2022/04/16 07:42:28;;;;;;;1.25;1.15;;;10.00;99.90;;;;;;4992698;28;20038;-71
2022/04/16 07:44:56;;;;;;;6.60;3.08;;;10.30;99.90;;;;;;5009491;28;20077;-71
2022/04/16 07:47:22;;;;;;;8.93;4.75;;;10.40;99.90;;;;;;4992303;28;20038;-71
2022/04/16 07:49:48;;;;;;;4.45;3.38;;;10.40;99.90;;;;;;4976244;28;20153;-71
2022/04/16 07:52:14;;;;;;;2.80;2.22;;;10.20;99.90;;;;;;4991362;28;20044;-72
2022/04/16 07:54:39;;;;;;;5.13;4.22;;;10.10;99.90;;;;;;5007966;28;20069;-72
2022/04/16 07:57:06;;;;;;;2.67;2.42;;;10.10;99.90;;;;;;5008616;28;20107;-71
2022/04/16 07:59:32;;;;;;;6.78;4.10;;;10.00;99.90;;;;;;4991886;28;20436;-71
2022/04/16 08:01:58;;;;;;;1.00;1.00;;;10.10;99.90;;;;;;4992018;28;20041;-72
2022/04/16 08:04:24;;;;;;;3.75;3.10;;;10.10;99.90;;;;;;5008488;28;20099;-71
2022/04/16 08:06:50;;;;;;;5.80;3.70;;;10.10;99.90;;;;;;5008249;28;20503;-71
2022/04/16 08:09:19;;;;;;;2.00;1.85;;;10.20;99.90;;;;;;5001003;28;20091;-71
2022/04/16 08:11:47;;;;;;;7.00;3.08;;;10.30;99.90;;;;;;5010998;28;20053;-71
2022/04/16 08:14:13;;;;;;;3.35;2.58;;;10.30;99.90;;;;;;5011355;28;20076;-71
2022/04/16 08:16:39;;;;;;;3.80;2.75;;;10.30;99.90;;;;;;4991637;28;20076;-71
2022/04/16 08:19:05;;;;;;;5.75;4.40;;;10.40;99.90;;;;;;5004360;28;20481;-71
2022/04/16 08:21:31;;;;;;;5.07;3.03;;;10.40;99.90;;;;;;5010413;28;20129;-71
2022/04/16 08:24:13;;;;;;;6.45;3.55;;;10.40;99.90;;;;;;5004746;28;20434;-71
2022/04/16 08:26:42;;;;;;;10.77;4.47;;;10.40;99.90;;;;;;5010615;28;20053;-71
2022/04/16 08:29:08;;;;;;;5.57;3.05;;;10.40;99.90;;;;;;4983704;28;20041;-71
2022/04/16 08:31:33;;;;;;;6.57;3.50;;;10.40;99.90;;;;;;4990600;28;20037;-70
2022/04/16 08:33:59;;;;;;;4.75;2.58;;;10.50;99.90;;;;;;4988877;28;20084;-71
2022/04/16 08:36:26;;;;;;;3.50;2.17;;;10.50;99.90;;;;;;5021834;28;20090;-70
2022/04/16 08:38:52;;;;;;;3.55;2.63;;;10.60;99.90;;;;;;4993303;28;20389;-72
2022/04/16 08:41:17;;;;;;;7.90;2.72;;;10.70;99.90;;;;;;5010298;28;20033;-71
2022/04/16 08:43:44;;;;;;;6.50;3.47;;;11.50;99.90;;;;;;5010853;28;20418;-71
2022/04/16 08:46:10;;;;;;;5.72;1.63;;;12.30;99.90;;;;;;4993234;28;20079;-73
2022/04/16 08:48:36;;;;;;;2.58;1.75;;;12.60;99.90;;;;;;5014639;28;20466;-72
2022/04/16 08:51:03;;;;;;;2.83;1.85;;;12.70;99.90;;;;;;5013486;28;20041;-71
2022/04/16 08:53:29;;;;;;;2.78;2.35;;;12.80;99.90;;;;;;5010172;28;20041;-71
2022/04/16 08:55:54;;;;;;;5.60;1.98;;;13.10;99.90;;;;;;5009221;28;20045;-71
2022/04/16 08:58:20;;;;;;;2.35;1.90;;;13.60;99.90;;;;;;4995269;28;20045;-72
2022/04/16 09:00:47;;;;;;;3.67;2.03;;;14.10;98.30;;;;;;5011168;28;20049;-71
2022/04/16 09:03:12;;;;;;;4.78;2.30;;;14.30;98.10;;;;;;4992477;28;20049;-71
2022/04/16 09:05:38;;;;;;;1.98;1.67;;;14.60;94.90;;;;;;5008982;28;20485;-72
2022/04/16 09:08:04;;;;;;;3.13;1.88;;;14.80;92.80;;;;;;4992598;28;20112;-71
2022/04/16 09:10:32;;;;;;;2.15;1.70;;;14.90;91.30;;;;;;5027294;28;20046;-72
2022/04/16 09:13:00;;;;;;;2.50;2.15;;;14.90;86.60;;;;;;4988546;28;20073;-71
2022/04/16 09:15:27;;;;;;;2.15;1.30;;;15.00;88.50;;;;;;5010454;28;20447;-71
2022/04/16 09:18:00;;;;;;;2.00;1.65;;;15.00;83.50;;;;;;5018013;28;20072;-71
2022/04/16 09:20:37;;;;;;;3.55;2.13;;;15.20;87.70;;;;;;5010684;28;20445;-71
2022/04/16 09:23:15;;;;;;;1.45;0.85;;;15.40;81.30;;;;;;4996220;28;20052;-72
2022/04/16 09:25:42;;;;;;;1.42;1.33;;;15.60;83.00;;;;;;5009899;28;20057;-72
2022/04/16 09:28:08;;;;;;;2.28;1.58;;;15.70;86.10;;;;;;4997775;28;20409;-71
2022/04/16 09:30:34;;;;;;;3.17;0.77;;;15.90;84.40;;;;;;5012882;28;20433;-72
2022/04/16 09:33:01;;;;;;;0.80;0.80;;;16.10;83.10;;;;;;5013030;28;20049;-72
2022/04/16 09:35:36;;;;;;;3.25;1.88;;;16.30;78.60;;;;;;4997276;28;20393;-70
2022/04/16 09:38:04;;;;;;;0.40;0.40;;;16.20;69.50;;;;;;5013580;28;20049;-71
2022/04/16 09:40:31;;;;;;;2.65;1.55;;;15.80;69.60;;;;;;4997030;28;20102;-72
2022/04/16 09:43:01;;;;;;;1.20;1.10;;;15.90;71.80;;;;;;5010945;28;20501;-72
2022/04/16 09:45:27;;;;;;;2.63;1.48;;;15.70;69.00;;;;;;5024109;28;20060;-72
2022/04/16 09:47:53;;;;;;;2.10;0.90;;;15.70;69.00;;;;;;5003053;28;20131;-72
2022/04/16 09:50:21;;;;;;;1.27;1.08;;;15.70;71.60;;;;;;5006885;28;20416;-72
2022/04/16 09:52:52;;;;;;;1.65;1.55;;;15.80;68.20;;;;;;5029711;28;20520;-71
2022/04/16 09:55:23;;;;;;;2.38;1.80;;;15.70;66.90;;;;;;5011767;28;20049;-71
2022/04/16 09:57:52;;;;;;;0.50;0.50;;;15.60;68.40;;;;;;5004515;28;20049;-71
2022/04/16 10:00:18;;;;;;;0.68;0.68;;;15.80;68.40;;;;;;5004676;28;20099;-72
2022/04/16 10:02:44;;;;;;;1.70;1.55;;;16.10;71.70;;;;;;4999381;28;20413;-71
2022/04/16 10:05:10;;;;;;;1.42;1.05;;;16.10;67.20;;;;;;5026348;28;20201;-71
2022/04/16 10:07:37;;;;;;;1.33;0.90;;;15.90;65.80;;;;;;5010931;28;20186;-71
2022/04/16 10:10:06;;;;;;;2.10;1.20;;;15.60;63.90;;;;;;4994368;28;20049;-71
2022/04/16 10:15:23;;;;;;;2.78;1.77;;;15.20;62.30;;;;;;4993893;28;20049;-71
2022/04/16 10:17:51;;;;;;;1.88;1.17;;;15.10;63.10;;;;;;4996857;28;20045;-72
2022/04/16 10:20:21;;;;;;;0.95;0.95;;;15.00;63.00;;;;;;4996822;28;20045;-71
2022/04/16 10:23:05;;;;;;;0.65;0.52;;;15.00;65.10;;;;;;5009810;28;20060;-71
2022/04/16 10:25:41;;;;;;;1.23;0.75;;;14.90;61.20;;;;;;4996893;28;20053;-71
2022/04/16 10:28:07;;;;;;;0.60;0.60;;;14.90;62.00;;;;;;4997193;28;20049;-72
2022/04/16 10:30:53;;;;;;;2.58;1.10;;;14.80;60.00;;;;;;5013712;28;20329;-71
2022/04/16 10:33:23;;;;;;;0.75;0.73;;;14.70;56.80;;;;;;5012336;28;20473;-71
2022/04/16 10:36:23;;;;;;;0.30;0.30;;;14.60;57.10;;;;;;5013270;28;20487;-72
2022/04/16 10:38:51;;;;;;;1.73;1.33;;;14.60;59.60;;;;;;5010367;28;20410;-71
2022/04/16 10:41:21;;;;;;;0.45;0.45;;;14.60;58.60;;;;;;5009486;28;20044;-72
2022/04/16 10:44:02;;;;;;;0.68;0.68;;;14.70;59.00;;;;;;5012756;28;20045;-71
2022/04/16 10:46:44;;;;;;;0.30;0.30;;;14.90;60.80;;;;;;4997394;28;20435;-72
2022/04/16 10:49:12;;;;;;;0.53;0.53;;;15.10;61.40;;;;;;4993096;28;20127;-72
2022/04/16 10:51:37;;;;;;;0.68;0.68;;;15.30;62.90;;;;;;5009914;28;20053;-71
2022/04/16 10:54:30;;;;;;;1.10;0.70;;;15.30;57.50;;;;;;5006137;28;20371;-71
2022/04/16 10:56:56;;;;;;;1.10;1.00;;;15.20;56.90;;;;;;5013195;28;20462;-71
2022/04/16 10:59:57;;;;;;;2.47;0.68;;;15.10;53.60;;;;;;5008994;28;20199;-71
2022/04/16 11:02:24;;;;;;;1.85;1.02;;;14.90;57.90;;;;;;5001102;28;20121;-71
2022/04/16 11:04:55;;;;;;;3.10;0.90;;;15.00;55.10;;;;;;4987977;28;20049;-71
2022/04/16 11:07:25;;;;;;;2.15;0.73;;;14.90;54.70;;;;;;4994105;28;20033;-71
2022/04/16 11:09:52;;;;;;;0.28;0.28;;;15.00;55.20;;;;;;4995723;28;20041;-72
2022/04/16 11:12:20;;;;;;;0.60;0.60;;;15.00;53.60;;;;;;5010551;28;20087;-71
2022/04/16 11:14:49;;;;;;;1.40;0.77;;;15.10;51.20;;;;;;5024887;28;20095;-71
2022/04/16 11:17:14;;;;;;;0.20;0.20;;;15.10;50.30;;;;;;5000245;28;20146;-71
2022/04/16 11:19:40;;;;;;;0.20;0.20;;;15.00;52.50;;;;;;5011541;28;20483;-72
2022/04/16 11:22:06;;;;;;;0.20;0.20;;;15.00;52.50;;;;;;5010360;28;20041;-71
2022/04/16 11:24:31;;;;;;;0.52;0.45;;;15.10;53.80;;;;;;4995545;28;20092;-72
2022/04/16 11:35:16;;;;;;;0.30;0.30;;;15.50;50.90;;;;;;5020508;28;20049;-71
2022/04/16 11:37:41;;;;;;;0.20;0.20;;;15.60;54.00;;;;;;5011219;28;20091;-71
2022/04/16 11:40:09;;;;;;;0.10;0.10;;;15.90;54.00;;;;;;5007573;28;20486;-71
2022/04/16 11:42:35;;;;;;;0.28;0.28;;;16.20;53.80;;;;;;5010363;28;20095;-71
2022/04/16 11:45:01;;;;;;;0.10;0.10;;;16.30;51.80;;;;;;5019846;28;20076;-71
2022/04/16 11:47:28;;;;;;;0.20;0.20;;;16.20;49.00;;;;;;4991332;28;20077;-72
2022/04/16 11:49:57;;;;;;;2.00;0.50;;;16.10;50.30;;;;;;4999544;28;21410;-71
2022/04/16 11:52:31;;;;;;;0.32;0.32;;;16.10;50.60;;;;;;4997749;28;20044;-71
2022/04/16 11:55:05;;;;;;;0.15;0.15;;;16.20;51.80;;;;;;4981175;28;20053;-72
2022/04/16 11:57:32;;;;;;;2.67;1.00;;;16.20;49.60;;;;;;5010669;28;20501;-72
2022/04/16 12:00:06;;;;;;;0.60;0.60;;;16.00;47.30;;;;;;4995677;28;20088;-72
2022/04/16 12:02:34;;;;;;;0.30;0.30;;;15.70;47.80;;;;;;5011823;28;20081;-71
2022/04/16 12:05:12;;;;;;;0.80;0.60;;;15.60;49.80;;;;;;4991497;28;20041;-71
2022/04/16 12:07:47;;;;;;;0.40;0.40;;;15.60;47.10;;;;;;5008296;28;20073;-71
2022/04/16 12:10:14;;;;;;;0.30;0.30;;;15.50;47.00;;;;;;4991474;28;20037;-72
2022/04/16 12:12:52;;;;;;;0.10;0.10;;;15.30;47.90;;;;;;4980480;28;20050;-71
2022/04/16 12:15:28;;;;;;;0.60;0.60;;;15.40;50.80;;;;;;4994934;28;20077;-71
2022/04/16 12:18:09;;;;;;;0.10;0.10;;;15.60;50.00;;;;;;5027740;28;20057;-71
2022/04/16 12:20:40;;;;;;;2.15;0.40;;;15.80;51.50;;;;;;5007219;28;20060;-71
2022/04/16 12:23:10;;;;;;;2.40;0.20;;;15.90;49.60;;;;;;4991748;28;20632;-72
2022/04/16 12:25:36;;;;;;;0.75;0.57;;;15.90;50.70;;;;;;4991381;28;20549;-71
2022/04/16 12:28:02;;;;;;;0.20;0.20;;;16.00;51.20;;;;;;5004952;28;20042;-72
2022/04/16 12:30:33;;;;;;;0.20;0.20;;;16.10;51.80;;;;;;5001106;28;20041;-72
2022/04/16 12:33:00;;;;;;;0.20;0.20;;;16.10;49.00;;;;;;4975326;28;20045;-71
2022/04/16 12:35:28;;;;;;;0.40;0.40;;;16.30;49.90;;;;;;5014304;28;20379;-72
2022/04/16 12:37:54;;;;;;;0.50;0.50;;;16.40;49.70;;;;;;5010892;28;20056;-72
2022/04/16 12:40:21;;;;;;;0.43;0.43;;;16.30;47.50;;;;;;5005702;28;20059;-72
2022/04/16 12:42:48;;;;;;;0.47;0.47;;;16.20;43.70;;;;;;4992666;28;20067;-72
2022/04/16 12:45:14;;;;;;;0.05;0.05;;;16.00;45.20;;;;;;5013374;28;20501;-73
2022/04/16 12:47:40;;;;;;;0.55;0.55;;;15.90;47.00;;;;;;4993530;28;20179;-72
2022/04/16 12:50:06;;;;;;;0.15;0.15;;;16.10;49.50;;;;;;5009078;28;20079;-72
2022/04/16 12:52:31;;;;;;;0.40;0.40;;;16.30;48.10;;;;;;5006610;28;20048;-72
2022/04/16 12:54:57;;;;;;;3.15;0.65;;;16.50;48.30;;;;;;4994575;28;20045;-72
2022/04/16 12:57:23;;;;;;;0.32;0.32;;;16.60;47.60;;;;;;4989322;28;20045;-72
2022/04/16 12:59:48;;;;;;;0.35;0.35;;;16.70;48.10;;;;;;4990535;28;20428;-71
2022/04/16 13:02:14;;;;;;;0.63;0.60;;;16.70;46.80;;;;;;5009911;28;20041;-71
2022/04/16 13:04:39;;;;;;;0.20;0.20;;;16.60;45.90;;;;;;5008526;28;20053;-71
2022/04/16 13:07:05;;;;;;;1.27;0.55;;;16.50;48.80;;;;;;5008589;28;20394;-71
2022/04/16 13:09:30;;;;;;;0.47;0.35;;;16.60;47.40;;;;;;5011064;28;20110;-72
2022/04/16 13:11:56;;;;;;;0.20;0.20;;;16.60;46.40;;;;;;5009841;28;20124;-72
2022/04/16 13:14:22;;;;;;;0.40;0.40;;;16.60;48.80;;;;;;5011079;28;20067;-72
2022/04/16 13:16:48;;;;;;;0.77;0.63;;;16.70;47.30;;;;;;4993592;28;20041;-73